Terminal Aerodrome Forecast
Issued by NWS Wilmington, OH

Home | Current Version | Previous Version | Text Only | Print | Product List | Glossary On
Versions: 1 2 3 4 5 6 7 8 9 10 11 12 13 14 15 16 17 18 19
000
FTUS41 KILN 251100
TAFILN
TAF
KILN 251120Z 2512/2612 12007KT P6SM VCSH OVC060
     FM251600 10012G20KT P6SM -SHRA OVC035
     FM251800 10012G20KT 4SM -SHRA SCT015 OVC025
     FM252100 06012G20KT P6SM VCSH OVC008
     FM260000 03014G23KT P6SM OVC008
     FM260800 01010KT P6SM SCT008 BKN050=

USA.gov is the U.S. government's official web portal to all federal, state and local government web resources and services.